sensor_id;sensor_type;location;lat;lon;timestamp;temperature;humidity
17851;DHT22;9051;51.548;14.348;2022-10-16T00:00:05;15.20;99.90
17851;DHT22;9051;51.548;14.348;2022-10-16T00:02:38;15.20;99.90
17851;DHT22;9051;51.548;14.348;2022-10-16T00:05:11;15.20;99.90
17851;DHT22;9051;51.548;14.348;2022-10-16T00:07:43;15.20;99.90
17851;DHT22;9051;51.548;14.348;2022-10-16T00:10:16;15.20;99.90
17851;DHT22;9051;51.548;14.348;2022-10-16T00:12:48;15.20;99.90
17851;DHT22;9051;51.548;14.348;2022-10-16T00:15:20;15.20;99.90
17851;DHT22;9051;51.548;14.348;2022-10-16T00:17:57;15.20;99.90
17851;DHT22;9051;51.548;14.348;2022-10-16T00:20:30;15.20;99.90
17851;DHT22;9051;51.548;14.348;2022-10-16T00:23:04;15.20;99.90
17851;DHT22;9051;51.548;14.348;2022-10-16T00:25:36;15.20;99.90
17851;DHT22;9051;51.548;14.348;2022-10-16T00:28:08;15.20;99.90
17851;DHT22;9051;51.548;14.348;2022-10-16T00:30:42;15.20;99.90
17851;DHT22;9051;51.548;14.348;2022-10-16T00:33:14;15.20;99.90
17851;DHT22;9051;51.548;14.348;2022-10-16T00:35:47;15.20;99.90
17851;DHT22;9051;51.548;14.348;2022-10-16T00:38:20;15.20;99.90
17851;DHT22;9051;51.548;14.348;2022-10-16T00:40:52;15.20;99.90
17851;DHT22;9051;51.548;14.348;2022-10-16T00:43:40;15.10;99.90
17851;DHT22;9051;51.548;14.348;2022-10-16T00:46:15;15.10;99.90
17851;DHT22;9051;51.548;14.348;2022-10-16T00:48:53;15.10;99.90
17851;DHT22;9051;51.548;14.348;2022-10-16T00:51:31;15.10;99.90
17851;DHT22;9051;51.548;14.348;2022-10-16T00:54:08;15.10;99.90
17851;DHT22;9051;51.548;14.348;2022-10-16T00:56:41;15.00;99.90
17851;DHT22;9051;51.548;14.348;2022-10-16T00:59:17;15.00;99.90
17851;DHT22;9051;51.548;14.348;2022-10-16T01:01:50;14.90;99.90
17851;DHT22;9051;51.548;14.348;2022-10-16T01:04:23;14.90;99.90
17851;DHT22;9051;51.548;14.348;2022-10-16T01:07:06;14.90;99.90
17851;DHT22;9051;51.548;14.348;2022-10-16T01:09:51;14.90;99.90
17851;DHT22;9051;51.548;14.348;2022-10-16T01:12:33;14.80;99.90
17851;DHT22;9051;51.548;14.348;2022-10-16T01:15:11;14.80;99.90
17851;DHT22;9051;51.548;14.348;2022-10-16T01:17:51;14.70;99.90
17851;DHT22;9051;51.548;14.348;2022-10-16T01:20:28;14.70;99.90
17851;DHT22;9051;51.548;14.348;2022-10-16T01:23:15;14.60;99.90
17851;DHT22;9051;51.548;14.348;2022-10-16T01:26:06;14.60;99.90
17851;DHT22;9051;51.548;14.348;2022-10-16T01:28:49;14.60;99.90
17851;DHT22;9051;51.548;14.348;2022-10-16T01:31:26;14.60;99.90
17851;DHT22;9051;51.548;14.348;2022-10-16T01:34:02;14.60;99.90
17851;DHT22;9051;51.548;14.348;2022-10-16T01:36:38;14.60;99.90
17851;DHT22;9051;51.548;14.348;2022-10-16T01:39:12;14.60;99.90
17851;DHT22;9051;51.548;14.348;2022-10-16T01:41:48;14.60;99.90
17851;DHT22;9051;51.548;14.348;2022-10-16T01:44:25;14.60;99.90
17851;DHT22;9051;51.548;14.348;2022-10-16T01:46:57;14.60;99.90
17851;DHT22;9051;51.548;14.348;2022-10-16T01:49:34;14.70;99.90
17851;DHT22;9051;51.548;14.348;2022-10-16T01:52:10;14.70;99.90
17851;DHT22;9051;51.548;14.348;2022-10-16T01:54:46;14.70;99.90
17851;DHT22;9051;51.548;14.348;2022-10-16T01:57:21;14.60;99.90
17851;DHT22;9051;51.548;14.348;2022-10-16T02:00:01;14.70;99.90
17851;DHT22;9051;51.548;14.348;2022-10-16T02:02:45;14.60;99.90
17851;DHT22;9051;51.548;14.348;2022-10-16T02:05:22;14.60;99.90
17851;DHT22;9051;51.548;14.348;2022-10-16T02:07:55;14.60;99.90
17851;DHT22;9051;51.548;14.348;2022-10-16T02:10:27;14.60;99.90
17851;DHT22;9051;51.548;14.348;2022-10-16T02:13:05;14.70;99.90
17851;DHT22;9051;51.548;14.348;2022-10-16T02:15:39;14.70;99.90
17851;DHT22;9051;51.548;14.348;2022-10-16T02:18:11;14.70;99.90
17851;DHT22;9051;51.548;14.348;2022-10-16T02:20:55;14.80;99.90
17851;DHT22;9051;51.548;14.348;2022-10-16T02:23:35;14.80;99.90
17851;DHT22;9051;51.548;14.348;2022-10-16T02:26:13;14.80;99.90
17851;DHT22;9051;51.548;14.348;2022-10-16T02:28:51;14.90;99.90
17851;DHT22;9051;51.548;14.348;2022-10-16T02:31:28;14.90;99.90
17851;DHT22;9051;51.548;14.348;2022-10-16T02:34:03;14.90;99.90
17851;DHT22;9051;51.548;14.348;2022-10-16T02:36:36;14.90;99.90
17851;DHT22;9051;51.548;14.348;2022-10-16T02:39:08;15.00;99.90
17851;DHT22;9051;51.548;14.348;2022-10-16T02:41:41;15.00;99.90
17851;DHT22;9051;51.548;14.348;2022-10-16T02:44:13;15.10;99.90
17851;DHT22;9051;51.548;14.348;2022-10-16T02:46:47;15.10;99.90
17851;DHT22;9051;51.548;14.348;2022-10-16T02:49:19;15.10;99.90
17851;DHT22;9051;51.548;14.348;2022-10-16T02:51:50;15.10;99.90
17851;DHT22;9051;51.548;14.348;2022-10-16T02:54:22;15.10;99.90
17851;DHT22;9051;51.548;14.348;2022-10-16T02:56:54;15.10;99.90
17851;DHT22;9051;51.548;14.348;2022-10-16T02:59:28;15.10;99.90
17851;DHT22;9051;51.548;14.348;2022-10-16T03:02:01;15.10;99.90
17851;DHT22;9051;51.548;14.348;2022-10-16T03:04:33;15.10;99.90
17851;DHT22;9051;51.548;14.348;2022-10-16T03:07:05;15.10;99.90
17851;DHT22;9051;51.548;14.348;2022-10-16T03:09:38;15.10;99.90
17851;DHT22;9051;51.548;14.348;2022-10-16T03:12:10;15.10;99.90
17851;DHT22;9051;51.548;14.348;2022-10-16T03:14:42;15.20;99.90
17851;DHT22;9051;51.548;14.348;2022-10-16T03:17:15;15.20;99.90
17851;DHT22;9051;51.548;14.348;2022-10-16T03:19:48;15.20;99.90
17851;DHT22;9051;51.548;14.348;2022-10-16T03:22:20;15.20;99.90
17851;DHT22;9051;51.548;14.348;2022-10-16T03:24:51;15.20;99.90
17851;DHT22;9051;51.548;14.348;2022-10-16T03:27:23;15.20;99.90
17851;DHT22;9051;51.548;14.348;2022-10-16T03:29:55;15.10;99.90
17851;DHT22;9051;51.548;14.348;2022-10-16T03:32:28;15.10;99.90
17851;DHT22;9051;51.548;14.348;2022-10-16T03:35:00;15.20;99.90
17851;DHT22;9051;51.548;14.348;2022-10-16T03:37:32;15.10;99.90
17851;DHT22;9051;51.548;14.348;2022-10-16T03:40:05;15.20;99.90
17851;DHT22;9051;51.548;14.348;2022-10-16T03:42:37;15.10;99.90
17851;DHT22;9051;51.548;14.348;2022-10-16T03:45:10;15.20;99.90
17851;DHT22;9051;51.548;14.348;2022-10-16T03:47:43;15.20;99.90
17851;DHT22;9051;51.548;14.348;2022-10-16T03:50:15;15.20;99.90
17851;DHT22;9051;51.548;14.348;2022-10-16T03:52:47;15.20;99.90
17851;DHT22;9051;51.548;14.348;2022-10-16T03:55:19;15.20;99.90
17851;DHT22;9051;51.548;14.348;2022-10-16T03:57:51;15.20;99.90
17851;DHT22;9051;51.548;14.348;2022-10-16T04:00:23;15.20;99.90
17851;DHT22;9051;51.548;14.348;2022-10-16T04:02:57;15.10;99.90
17851;DHT22;9051;51.548;14.348;2022-10-16T04:05:29;15.10;99.90
17851;DHT22;9051;51.548;14.348;2022-10-16T04:08:01;15.10;99.90
17851;DHT22;9051;51.548;14.348;2022-10-16T04:10:33;15.10;99.90
17851;DHT22;9051;51.548;14.348;2022-10-16T04:13:05;15.10;99.90
17851;DHT22;9051;51.548;14.348;2022-10-16T04:15:37;15.00;99.90
17851;DHT22;9051;51.548;14.348;2022-10-16T04:18:10;15.00;99.90
17851;DHT22;9051;51.548;14.348;2022-10-16T04:20:42;15.00;99.90
17851;DHT22;9051;51.548;14.348;2022-10-16T04:23:14;15.00;99.90
17851;DHT22;9051;51.548;14.348;2022-10-16T04:25:46;15.00;99.90
17851;DHT22;9051;51.548;14.348;2022-10-16T04:28:17;14.90;99.90
17851;DHT22;9051;51.548;14.348;2022-10-16T04:30:49;15.00;99.90
17851;DHT22;9051;51.548;14.348;2022-10-16T04:33:23;15.00;99.90
17851;DHT22;9051;51.548;14.348;2022-10-16T04:35:58;14.90;99.90
17851;DHT22;9051;51.548;14.348;2022-10-16T04:38:30;15.00;99.90
17851;DHT22;9051;51.548;14.348;2022-10-16T04:41:02;15.00;99.90
17851;DHT22;9051;51.548;14.348;2022-10-16T04:43:34;14.90;99.90
17851;DHT22;9051;51.548;14.348;2022-10-16T04:46:06;14.90;99.90
17851;DHT22;9051;51.548;14.348;2022-10-16T04:48:44;14.90;99.90
17851;DHT22;9051;51.548;14.348;2022-10-16T04:51:17;14.90;99.90
17851;DHT22;9051;51.548;14.348;2022-10-16T04:53:49;14.90;99.90
17851;DHT22;9051;51.548;14.348;2022-10-16T04:56:21;14.80;99.90
17851;DHT22;9051;51.548;14.348;2022-10-16T04:58:53;14.80;99.90
17851;DHT22;9051;51.548;14.348;2022-10-16T05:01:25;14.80;99.90
17851;DHT22;9051;51.548;14.348;2022-10-16T05:03:59;14.70;99.90
17851;DHT22;9051;51.548;14.348;2022-10-16T05:06:30;14.70;99.90
17851;DHT22;9051;51.548;14.348;2022-10-16T05:09:03;14.70;99.90
17851;DHT22;9051;51.548;14.348;2022-10-16T05:11:35;14.60;99.90
17851;DHT22;9051;51.548;14.348;2022-10-16T05:14:06;14.60;99.90
17851;DHT22;9051;51.548;14.348;2022-10-16T05:16:38;14.60;99.90
17851;DHT22;9051;51.548;14.348;2022-10-16T05:19:12;14.60;99.90
17851;DHT22;9051;51.548;14.348;2022-10-16T05:21:44;14.60;99.90
17851;DHT22;9051;51.548;14.348;2022-10-16T05:24:16;14.60;99.90
17851;DHT22;9051;51.548;14.348;2022-10-16T05:26:50;14.60;99.90
17851;DHT22;9051;51.548;14.348;2022-10-16T05:29:22;14.60;99.90
17851;DHT22;9051;51.548;14.348;2022-10-16T05:31:54;14.60;99.90
17851;DHT22;9051;51.548;14.348;2022-10-16T05:34:28;14.60;99.90
17851;DHT22;9051;51.548;14.348;2022-10-16T05:37:00;14.60;99.90
17851;DHT22;9051;51.548;14.348;2022-10-16T05:39:32;14.60;99.90
17851;DHT22;9051;51.548;14.348;2022-10-16T05:42:04;14.60;99.90
17851;DHT22;9051;51.548;14.348;2022-10-16T05:44:36;14.60;99.90
17851;DHT22;9051;51.548;14.348;2022-10-16T05:47:08;14.60;99.90
17851;DHT22;9051;51.548;14.348;2022-10-16T05:49:42;14.60;99.90
17851;DHT22;9051;51.548;14.348;2022-10-16T05:52:14;14.60;99.90
17851;DHT22;9051;51.548;14.348;2022-10-16T05:54:46;14.60;99.90
17851;DHT22;9051;51.548;14.348;2022-10-16T05:57:18;14.70;99.90
17851;DHT22;9051;51.548;14.348;2022-10-16T05:59:50;14.70;99.90
17851;DHT22;9051;51.548;14.348;2022-10-16T06:02:22;14.80;99.90
17851;DHT22;9051;51.548;14.348;2022-10-16T06:04:55;14.80;99.90
17851;DHT22;9051;51.548;14.348;2022-10-16T06:07:27;14.80;99.90
17851;DHT22;9051;51.548;14.348;2022-10-16T06:09:59;14.80;99.90
17851;DHT22;9051;51.548;14.348;2022-10-16T06:12:31;14.90;99.90
17851;DHT22;9051;51.548;14.348;2022-10-16T06:15:04;14.90;99.90
17851;DHT22;9051;51.548;14.348;2022-10-16T06:17:36;15.00;99.90
17851;DHT22;9051;51.548;14.348;2022-10-16T06:20:10;15.00;99.90
17851;DHT22;9051;51.548;14.348;2022-10-16T06:22:42;15.10;99.90
17851;DHT22;9051;51.548;14.348;2022-10-16T06:25:14;15.10;99.90
17851;DHT22;9051;51.548;14.348;2022-10-16T06:27:46;15.20;99.90
17851;DHT22;9051;51.548;14.348;2022-10-16T06:30:19;15.20;99.90
17851;DHT22;9051;51.548;14.348;2022-10-16T06:32:51;15.20;99.90
17851;DHT22;9051;51.548;14.348;2022-10-16T06:35:24;15.30;99.90
17851;DHT22;9051;51.548;14.348;2022-10-16T06:37:57;15.30;99.90
17851;DHT22;9051;51.548;14.348;2022-10-16T06:40:29;15.40;99.90
17851;DHT22;9051;51.548;14.348;2022-10-16T06:43:00;15.40;99.90
17851;DHT22;9051;51.548;14.348;2022-10-16T06:45:32;15.40;99.90
17851;DHT22;9051;51.548;14.348;2022-10-16T06:48:04;15.50;99.90
17851;DHT22;9051;51.548;14.348;2022-10-16T06:50:37;15.50;99.90
17851;DHT22;9051;51.548;14.348;2022-10-16T06:53:09;15.50;99.90
17851;DHT22;9051;51.548;14.348;2022-10-16T06:55:41;15.60;99.90
17851;DHT22;9051;51.548;14.348;2022-10-16T06:58:13;15.60;99.90
17851;DHT22;9051;51.548;14.348;2022-10-16T07:00:45;15.60;99.90
17851;DHT22;9051;51.548;14.348;2022-10-16T07:03:17;15.70;99.90
17851;DHT22;9051;51.548;14.348;2022-10-16T07:05:51;15.80;99.90
17851;DHT22;9051;51.548;14.348;2022-10-16T07:08:23;15.80;99.90
17851;DHT22;9051;51.548;14.348;2022-10-16T07:10:58;15.90;99.90
17851;DHT22;9051;51.548;14.348;2022-10-16T07:13:33;16.00;99.90
17851;DHT22;9051;51.548;14.348;2022-10-16T07:16:07;16.00;99.90
17851;DHT22;9051;51.548;14.348;2022-10-16T07:18:39;16.10;99.90
17851;DHT22;9051;51.548;14.348;2022-10-16T07:21:16;16.20;99.90
17851;DHT22;9051;51.548;14.348;2022-10-16T07:23:50;16.20;99.90
17851;DHT22;9051;51.548;14.348;2022-10-16T07:26:22;16.30;99.90
17851;DHT22;9051;51.548;14.348;2022-10-16T07:28:54;16.30;99.90
17851;DHT22;9051;51.548;14.348;2022-10-16T07:31:27;16.30;99.90
17851;DHT22;9051;51.548;14.348;2022-10-16T07:34:00;16.40;99.90
17851;DHT22;9051;51.548;14.348;2022-10-16T07:36:33;16.40;99.90
17851;DHT22;9051;51.548;14.348;2022-10-16T07:39:05;16.40;99.90
17851;DHT22;9051;51.548;14.348;2022-10-16T07:41:40;16.40;99.90
17851;DHT22;9051;51.548;14.348;2022-10-16T07:44:12;16.40;99.90
17851;DHT22;9051;51.548;14.348;2022-10-16T07:46:44;16.50;99.90
17851;DHT22;9051;51.548;14.348;2022-10-16T07:49:16;16.50;99.90
17851;DHT22;9051;51.548;14.348;2022-10-16T07:51:52;16.50;99.90
17851;DHT22;9051;51.548;14.348;2022-10-16T07:54:24;16.60;99.90
17851;DHT22;9051;51.548;14.348;2022-10-16T07:56:56;16.60;99.90
17851;DHT22;9051;51.548;14.348;2022-10-16T07:59:29;16.70;99.90
17851;DHT22;9051;51.548;14.348;2022-10-16T08:02:01;16.80;99.90
17851;DHT22;9051;51.548;14.348;2022-10-16T08:04:33;16.90;99.90
17851;DHT22;9051;51.548;14.348;2022-10-16T08:07:08;17.00;99.90
17851;DHT22;9051;51.548;14.348;2022-10-16T08:09:40;17.00;99.90
17851;DHT22;9051;51.548;14.348;2022-10-16T08:12:12;17.00;99.90
17851;DHT22;9051;51.548;14.348;2022-10-16T08:14:44;17.10;99.90
17851;DHT22;9051;51.548;14.348;2022-10-16T08:17:16;17.10;99.90
17851;DHT22;9051;51.548;14.348;2022-10-16T08:19:48;17.00;99.90
17851;DHT22;9051;51.548;14.348;2022-10-16T08:22:21;17.10;99.90
17851;DHT22;9051;51.548;14.348;2022-10-16T08:24:54;17.10;99.90
17851;DHT22;9051;51.548;14.348;2022-10-16T08:27:31;17.10;99.90
17851;DHT22;9051;51.548;14.348;2022-10-16T08:30:03;17.20;99.90
17851;DHT22;9051;51.548;14.348;2022-10-16T08:32:36;17.30;99.90
17851;DHT22;9051;51.548;14.348;2022-10-16T08:35:08;17.30;99.90
17851;DHT22;9051;51.548;14.348;2022-10-16T08:37:42;17.30;99.90
17851;DHT22;9051;51.548;14.348;2022-10-16T08:40:18;17.40;99.90
17851;DHT22;9051;51.548;14.348;2022-10-16T08:43:16;17.50;99.90
17851;DHT22;9051;51.548;14.348;2022-10-16T08:48:51;17.60;99.90
17851;DHT22;9051;51.548;14.348;2022-10-16T08:51:26;17.60;99.90
17851;DHT22;9051;51.548;14.348;2022-10-16T08:54:03;17.60;99.90
17851;DHT22;9051;51.548;14.348;2022-10-16T08:56:36;17.60;99.90
17851;DHT22;9051;51.548;14.348;2022-10-16T08:59:10;17.60;99.90
17851;DHT22;9051;51.548;14.348;2022-10-16T09:01:46;17.70;99.90
17851;DHT22;9051;51.548;14.348;2022-10-16T09:04:45;17.80;99.90
17851;DHT22;9051;51.548;14.348;2022-10-16T09:07:25;17.90;99.90
17851;DHT22;9051;51.548;14.348;2022-10-16T09:10:14;17.90;99.90
17851;DHT22;9051;51.548;14.348;2022-10-16T09:12:55;18.00;99.90
17851;DHT22;9051;51.548;14.348;2022-10-16T09:15:32;18.00;99.90
17851;DHT22;9051;51.548;14.348;2022-10-16T09:18:15;18.00;99.90
17851;DHT22;9051;51.548;14.348;2022-10-16T09:20:53;18.20;99.90
17851;DHT22;9051;51.548;14.348;2022-10-16T09:23:29;18.30;99.90
17851;DHT22;9051;51.548;14.348;2022-10-16T09:26:05;18.40;99.90
17851;DHT22;9051;51.548;14.348;2022-10-16T09:28:37;18.50;99.90
17851;DHT22;9051;51.548;14.348;2022-10-16T09:31:15;18.60;99.90
17851;DHT22;9051;51.548;14.348;2022-10-16T09:33:52;18.70;99.90
17851;DHT22;9051;51.548;14.348;2022-10-16T09:36:27;18.80;99.90
17851;DHT22;9051;51.548;14.348;2022-10-16T09:39:05;19.00;99.90
17851;DHT22;9051;51.548;14.348;2022-10-16T09:41:40;18.90;99.90
17851;DHT22;9051;51.548;14.348;2022-10-16T09:44:19;18.90;99.90
17851;DHT22;9051;51.548;14.348;2022-10-16T09:47:02;18.90;99.90
17851;DHT22;9051;51.548;14.348;2022-10-16T09:49:34;18.90;99.90
17851;DHT22;9051;51.548;14.348;2022-10-16T09:52:12;18.90;99.90
17851;DHT22;9051;51.548;14.348;2022-10-16T09:54:52;18.90;99.90
17851;DHT22;9051;51.548;14.348;2022-10-16T09:57:26;18.90;99.90
17851;DHT22;9051;51.548;14.348;2022-10-16T10:00:08;18.90;99.90
17851;DHT22;9051;51.548;14.348;2022-10-16T10:02:40;18.90;99.90
17851;DHT22;9051;51.548;14.348;2022-10-16T10:05:20;18.90;99.90
17851;DHT22;9051;51.548;14.348;2022-10-16T10:07:55;18.90;99.90
17851;DHT22;9051;51.548;14.348;2022-10-16T10:10:29;18.90;99.90
17851;DHT22;9051;51.548;14.348;2022-10-16T10:13:04;19.00;99.90
17851;DHT22;9051;51.548;14.348;2022-10-16T10:15:41;19.00;99.90
17851;DHT22;9051;51.548;14.348;2022-10-16T10:18:18;19.00;99.90
17851;DHT22;9051;51.548;14.348;2022-10-16T10:20:58;19.10;99.90
17851;DHT22;9051;51.548;14.348;2022-10-16T10:23:30;19.10;99.90
17851;DHT22;9051;51.548;14.348;2022-10-16T10:26:08;19.20;99.90
17851;DHT22;9051;51.548;14.348;2022-10-16T10:28:55;19.20;99.90
17851;DHT22;9051;51.548;14.348;2022-10-16T10:31:35;19.20;99.90
17851;DHT22;9051;51.548;14.348;2022-10-16T10:34:22;19.20;99.90
17851;DHT22;9051;51.548;14.348;2022-10-16T10:37:02;19.20;99.90
17851;DHT22;9051;51.548;14.348;2022-10-16T10:39:40;19.10;99.90
17851;DHT22;9051;51.548;14.348;2022-10-16T10:42:21;19.10;99.90
17851;DHT22;9051;51.548;14.348;2022-10-16T10:45:22;19.10;99.90
17851;DHT22;9051;51.548;14.348;2022-10-16T10:48:12;19.10;99.90
17851;DHT22;9051;51.548;14.348;2022-10-16T10:50:50;19.00;99.90
17851;DHT22;9051;51.548;14.348;2022-10-16T10:53:31;19.00;99.90
17851;DHT22;9051;51.548;14.348;2022-10-16T10:56:16;19.00;99.90
17851;DHT22;9051;51.548;14.348;2022-10-16T10:59:07;19.00;99.90
17851;DHT22;9051;51.548;14.348;2022-10-16T11:01:50;19.00;99.90
17851;DHT22;9051;51.548;14.348;2022-10-16T11:04:50;19.10;99.90
17851;DHT22;9051;51.548;14.348;2022-10-16T11:07:31;19.10;99.90
17851;DHT22;9051;51.548;14.348;2022-10-16T11:10:12;19.10;99.90
17851;DHT22;9051;51.548;14.348;2022-10-16T11:12:47;19.10;99.90
17851;DHT22;9051;51.548;14.348;2022-10-16T11:15:22;19.20;99.90
17851;DHT22;9051;51.548;14.348;2022-10-16T11:18:03;19.30;99.90
17851;DHT22;9051;51.548;14.348;2022-10-16T11:20:42;19.20;99.90
17851;DHT22;9051;51.548;14.348;2022-10-16T11:23:18;19.20;99.90
17851;DHT22;9051;51.548;14.348;2022-10-16T11:25:58;19.20;99.90
17851;DHT22;9051;51.548;14.348;2022-10-16T11:28:34;19.20;99.90
17851;DHT22;9051;51.548;14.348;2022-10-16T11:31:14;19.30;99.90
17851;DHT22;9051;51.548;14.348;2022-10-16T11:33:52;19.50;99.90
17851;DHT22;9051;51.548;14.348;2022-10-16T11:36:33;19.70;99.90
17851;DHT22;9051;51.548;14.348;2022-10-16T11:39:16;19.90;99.90
17851;DHT22;9051;51.548;14.348;2022-10-16T11:41:53;20.20;99.90
17851;DHT22;9051;51.548;14.348;2022-10-16T11:44:40;20.40;99.90
17851;DHT22;9051;51.548;14.348;2022-10-16T11:47:27;20.40;99.90
17851;DHT22;9051;51.548;14.348;2022-10-16T11:50:09;20.30;99.90
17851;DHT22;9051;51.548;14.348;2022-10-16T11:52:50;20.40;99.90
17851;DHT22;9051;51.548;14.348;2022-10-16T11:55:26;20.30;99.90
17851;DHT22;9051;51.548;14.348;2022-10-16T11:58:04;20.30;99.90
17851;DHT22;9051;51.548;14.348;2022-10-16T12:00:40;20.20;99.90
17851;DHT22;9051;51.548;14.348;2022-10-16T12:03:20;20.20;99.90
17851;DHT22;9051;51.548;14.348;2022-10-16T12:06:19;20.20;99.90
17851;DHT22;9051;51.548;14.348;2022-10-16T12:08:55;20.10;99.90
17851;DHT22;9051;51.548;14.348;2022-10-16T12:11:37;20.00;99.90
17851;DHT22;9051;51.548;14.348;2022-10-16T12:17:25;20.10;99.90
17851;DHT22;9051;51.548;14.348;2022-10-16T12:19:59;20.10;99.90
17851;DHT22;9051;51.548;14.348;2022-10-16T12:22:34;20.10;99.90
17851;DHT22;9051;51.548;14.348;2022-10-16T12:25:20;20.20;99.90
17851;DHT22;9051;51.548;14.348;2022-10-16T12:27:57;20.30;99.90
17851;DHT22;9051;51.548;14.348;2022-10-16T12:30:32;20.30;99.90
17851;DHT22;9051;51.548;14.348;2022-10-16T12:33:06;20.30;99.90
17851;DHT22;9051;51.548;14.348;2022-10-16T12:35:44;20.30;99.90
17851;DHT22;9051;51.548;14.348;2022-10-16T12:38:19;20.40;99.90
17851;DHT22;9051;51.548;14.348;2022-10-16T12:40:57;20.30;99.90
17851;DHT22;9051;51.548;14.348;2022-10-16T12:43:39;20.40;99.90
17851;DHT22;9051;51.548;14.348;2022-10-16T12:46:31;20.30;99.90
17851;DHT22;9051;51.548;14.348;2022-10-16T12:51:55;20.40;99.90
17851;DHT22;9051;51.548;14.348;2022-10-16T12:54:30;20.30;99.90
17851;DHT22;9051;51.548;14.348;2022-10-16T12:57:30;20.30;99.90
17851;DHT22;9051;51.548;14.348;2022-10-16T13:00:18;20.30;99.90
17851;DHT22;9051;51.548;14.348;2022-10-16T13:06:02;20.40;99.90
17851;DHT22;9051;51.548;14.348;2022-10-16T13:11:45;20.30;99.90
17851;DHT22;9051;51.548;14.348;2022-10-16T13:14:32;20.30;99.90
17851;DHT22;9051;51.548;14.348;2022-10-16T13:17:16;20.30;99.90
17851;DHT22;9051;51.548;14.348;2022-10-16T13:19:59;20.20;99.90
17851;DHT22;9051;51.548;14.348;2022-10-16T13:22:40;20.10;99.90
17851;DHT22;9051;51.548;14.348;2022-10-16T13:25:22;20.10;99.90
17851;DHT22;9051;51.548;14.348;2022-10-16T13:28:00;20.00;99.90
17851;DHT22;9051;51.548;14.348;2022-10-16T13:30:36;20.10;99.90
17851;DHT22;9051;51.548;14.348;2022-10-16T13:33:15;20.10;99.90
17851;DHT22;9051;51.548;14.348;2022-10-16T13:35:50;20.10;99.90
17851;DHT22;9051;51.548;14.348;2022-10-16T13:38:24;20.10;99.90
17851;DHT22;9051;51.548;14.348;2022-10-16T13:40:59;20.10;99.90
17851;DHT22;9051;51.548;14.348;2022-10-16T13:43:35;20.10;99.90
17851;DHT22;9051;51.548;14.348;2022-10-16T13:46:13;20.10;99.90
17851;DHT22;9051;51.548;14.348;2022-10-16T13:48:56;20.10;99.90
17851;DHT22;9051;51.548;14.348;2022-10-16T13:51:29;20.20;99.90
17851;DHT22;9051;51.548;14.348;2022-10-16T13:54:01;20.20;99.90
17851;DHT22;9051;51.548;14.348;2022-10-16T13:56:33;20.20;99.90
17851;DHT22;9051;51.548;14.348;2022-10-16T13:59:24;20.20;99.90
17851;DHT22;9051;51.548;14.348;2022-10-16T14:01:57;20.30;99.90
17851;DHT22;9051;51.548;14.348;2022-10-16T14:04:32;20.40;99.90
17851;DHT22;9051;51.548;14.348;2022-10-16T14:07:05;20.50;99.90
17851;DHT22;9051;51.548;14.348;2022-10-16T14:09:37;20.50;99.90
17851;DHT22;9051;51.548;14.348;2022-10-16T14:12:11;20.50;99.90
17851;DHT22;9051;51.548;14.348;2022-10-16T14:14:47;20.40;99.90
17851;DHT22;9051;51.548;14.348;2022-10-16T14:17:22;20.40;99.90
17851;DHT22;9051;51.548;14.348;2022-10-16T14:19:57;20.30;99.90
17851;DHT22;9051;51.548;14.348;2022-10-16T14:22:32;20.30;99.90
17851;DHT22;9051;51.548;14.348;2022-10-16T14:25:20;20.20;99.90
17851;DHT22;9051;51.548;14.348;2022-10-16T14:27:59;20.10;99.90
17851;DHT22;9051;51.548;14.348;2022-10-16T14:30:35;20.10;99.90
17851;DHT22;9051;51.548;14.348;2022-10-16T14:33:21;20.10;99.90
17851;DHT22;9051;51.548;14.348;2022-10-16T14:36:01;20.00;99.90
17851;DHT22;9051;51.548;14.348;2022-10-16T14:38:34;20.00;99.90
17851;DHT22;9051;51.548;14.348;2022-10-16T14:41:07;20.00;99.90
17851;DHT22;9051;51.548;14.348;2022-10-16T14:43:40;20.00;99.90
17851;DHT22;9051;51.548;14.348;2022-10-16T14:46:16;19.90;99.90
17851;DHT22;9051;51.548;14.348;2022-10-16T14:48:50;19.90;99.90
17851;DHT22;9051;51.548;14.348;2022-10-16T14:51:22;19.80;99.90
17851;DHT22;9051;51.548;14.348;2022-10-16T14:53:54;19.80;99.90
17851;DHT22;9051;51.548;14.348;2022-10-16T14:56:30;19.80;99.90
17851;DHT22;9051;51.548;14.348;2022-10-16T14:59:03;19.90;99.90
17851;DHT22;9051;51.548;14.348;2022-10-16T15:01:36;19.90;99.90
17851;DHT22;9051;51.548;14.348;2022-10-16T15:04:09;19.90;99.90
17851;DHT22;9051;51.548;14.348;2022-10-16T15:06:42;19.90;99.90
17851;DHT22;9051;51.548;14.348;2022-10-16T15:09:14;19.90;99.90
17851;DHT22;9051;51.548;14.348;2022-10-16T15:11:46;19.90;99.90
17851;DHT22;9051;51.548;14.348;2022-10-16T15:14:18;19.90;99.90
17851;DHT22;9051;51.548;14.348;2022-10-16T15:16:52;19.90;99.90
17851;DHT22;9051;51.548;14.348;2022-10-16T15:19:25;19.90;99.90
17851;DHT22;9051;51.548;14.348;2022-10-16T15:21:57;19.80;99.90
17851;DHT22;9051;51.548;14.348;2022-10-16T15:24:29;19.80;99.90
17851;DHT22;9051;51.548;14.348;2022-10-16T15:27:01;19.60;99.90
17851;DHT22;9051;51.548;14.348;2022-10-16T15:29:33;19.70;99.90
17851;DHT22;9051;51.548;14.348;2022-10-16T15:32:09;19.50;99.90
17851;DHT22;9051;51.548;14.348;2022-10-16T15:34:41;19.50;99.90
17851;DHT22;9051;51.548;14.348;2022-10-16T15:37:14;19.40;99.90
17851;DHT22;9051;51.548;14.348;2022-10-16T15:39:46;19.30;99.90
17851;DHT22;9051;51.548;14.348;2022-10-16T15:42:19;19.10;99.90
17851;DHT22;9051;51.548;14.348;2022-10-16T15:44:50;19.00;99.90
17851;DHT22;9051;51.548;14.348;2022-10-16T15:47:24;18.90;99.90
17851;DHT22;9051;51.548;14.348;2022-10-16T15:49:56;18.80;99.90
17851;DHT22;9051;51.548;14.348;2022-10-16T15:52:28;18.70;99.90
17851;DHT22;9051;51.548;14.348;2022-10-16T15:55:02;18.60;99.90
17851;DHT22;9051;51.548;14.348;2022-10-16T15:57:34;18.40;99.90
17851;DHT22;9051;51.548;14.348;2022-10-16T16:00:10;18.30;99.90
17851;DHT22;9051;51.548;14.348;2022-10-16T16:02:50;18.20;99.90
17851;DHT22;9051;51.548;14.348;2022-10-16T16:05:22;18.10;99.90
17851;DHT22;9051;51.548;14.348;2022-10-16T16:07:54;18.10;99.90
17851;DHT22;9051;51.548;14.348;2022-10-16T16:10:26;18.00;99.90
17851;DHT22;9051;51.548;14.348;2022-10-16T16:12:58;18.00;99.90
17851;DHT22;9051;51.548;14.348;2022-10-16T16:15:30;18.00;99.90
17851;DHT22;9051;51.548;14.348;2022-10-16T16:18:03;17.90;99.90
17851;DHT22;9051;51.548;14.348;2022-10-16T16:20:36;17.80;99.90
17851;DHT22;9051;51.548;14.348;2022-10-16T16:23:08;17.70;99.90
17851;DHT22;9051;51.548;14.348;2022-10-16T16:25:40;17.60;99.90
17851;DHT22;9051;51.548;14.348;2022-10-16T16:28:12;17.40;99.90
17851;DHT22;9051;51.548;14.348;2022-10-16T16:30:44;17.30;99.90
17851;DHT22;9051;51.548;14.348;2022-10-16T16:33:18;17.20;99.90
17851;DHT22;9051;51.548;14.348;2022-10-16T16:35:50;17.10;99.90